sensor_id;sensor_type;location;lat;lon;timestamp;P1;durP1;ratioP1;P2;durP2;ratioP2
48327;SDS011;34136;51.022;7.082;2023-03-01T01:43:01;8.97;;;6.27;;
48327;SDS011;34136;51.022;7.082;2023-03-01T01:45:48;12.27;;;6.83;;
48327;SDS011;34136;51.022;7.082;2023-03-01T01:48:39;10.87;;;7.47;;
48327;SDS011;34136;51.022;7.082;2023-03-01T01:51:31;11.03;;;7.77;;
48327;SDS011;34136;51.022;7.082;2023-03-01T01:54:25;8.43;;;6.27;;
48327;SDS011;34136;51.022;7.082;2023-03-01T01:57:18;11.07;;;6.83;;
48327;SDS011;34136;51.022;7.082;2023-03-01T02:00:10;9.93;;;6.63;;
48327;SDS011;34136;51.022;7.082;2023-03-01T02:03:17;10.47;;;6.90;;
48327;SDS011;34136;51.022;7.082;2023-03-01T02:06:07;11.13;;;6.40;;
48327;SDS011;34136;51.022;7.082;2023-03-01T02:09:02;10.30;;;6.90;;
48327;SDS011;34136;51.022;7.082;2023-03-01T02:11:53;9.83;;;6.63;;
48327;SDS011;34136;51.022;7.082;2023-03-01T02:14:40;12.30;;;7.17;;
48327;SDS011;34136;51.022;7.082;2023-03-01T02:17:26;9.90;;;6.93;;
48327;SDS011;34136;51.022;7.082;2023-03-01T02:20:17;10.67;;;7.07;;
48327;SDS011;34136;51.022;7.082;2023-03-01T02:23:12;11.50;;;7.23;;
48327;SDS011;34136;51.022;7.082;2023-03-01T02:26:04;9.70;;;7.03;;
48327;SDS011;34136;51.022;7.082;2023-03-01T02:28:59;9.23;;;6.43;;
48327;SDS011;34136;51.022;7.082;2023-03-01T02:31:45;11.60;;;7.47;;
48327;SDS011;34136;51.022;7.082;2023-03-01T02:34:32;9.67;;;6.77;;
48327;SDS011;34136;51.022;7.082;2023-03-01T02:37:19;14.47;;;7.40;;
48327;SDS011;34136;51.022;7.082;2023-03-01T02:40:07;10.03;;;6.63;;
48327;SDS011;34136;51.022;7.082;2023-03-01T02:42:58;11.73;;;6.85;;
48327;SDS011;34136;51.022;7.082;2023-03-01T02:45:51;10.87;;;6.57;;
48327;SDS011;34136;51.022;7.082;2023-03-01T02:48:40;10.67;;;6.67;;
48327;SDS011;34136;51.022;7.082;2023-03-01T02:57:31;12.33;;;7.73;;
48327;SDS011;34136;51.022;7.082;2023-03-01T03:00:21;9.37;;;6.80;;
48327;SDS011;34136;51.022;7.082;2023-03-01T03:03:13;13.55;;;7.82;;
48327;SDS011;34136;51.022;7.082;2023-03-01T03:06:01;12.40;;;7.20;;
48327;SDS011;34136;51.022;7.082;2023-03-01T03:08:49;10.00;;;6.90;;
48327;SDS011;34136;51.022;7.082;2023-03-01T03:11:35;13.07;;;8.70;;
48327;SDS011;34136;51.022;7.082;2023-03-01T03:14:21;12.20;;;7.67;;
48327;SDS011;34136;51.022;7.082;2023-03-01T03:17:08;13.17;;;8.47;;
48327;SDS011;34136;51.022;7.082;2023-03-01T03:19:54;14.20;;;7.60;;
48327;SDS011;34136;51.022;7.082;2023-03-01T03:22:40;12.57;;;7.97;;
48327;SDS011;34136;51.022;7.082;2023-03-01T03:25:27;12.83;;;8.13;;
48327;SDS011;34136;51.022;7.082;2023-03-01T03:28:15;10.63;;;6.93;;
48327;SDS011;34136;51.022;7.082;2023-03-01T03:31:20;10.50;;;7.33;;
48327;SDS011;34136;51.022;7.082;2023-03-01T03:34:07;11.33;;;7.60;;
48327;SDS011;34136;51.022;7.082;2023-03-01T03:37:12;11.93;;;7.23;;
48327;SDS011;34136;51.022;7.082;2023-03-01T03:40:16;12.70;;;8.33;;
48327;SDS011;34136;51.022;7.082;2023-03-01T03:43:03;16.13;;;8.47;;
48327;SDS011;34136;51.022;7.082;2023-03-01T03:45:51;15.93;;;9.23;;
48327;SDS011;34136;51.022;7.082;2023-03-01T03:48:41;18.30;;;9.83;;
48327;SDS011;34136;51.022;7.082;2023-03-01T03:51:29;17.35;;;9.07;;
48327;SDS011;34136;51.022;7.082;2023-03-01T03:54:15;14.60;;;9.17;;
48327;SDS011;34136;51.022;7.082;2023-03-01T03:57:01;14.37;;;8.73;;
48327;SDS011;34136;51.022;7.082;2023-03-01T03:59:48;14.77;;;8.80;;
48327;SDS011;34136;51.022;7.082;2023-03-01T04:02:34;13.47;;;9.33;;
48327;SDS011;34136;51.022;7.082;2023-03-01T04:05:20;16.83;;;10.07;;
48327;SDS011;34136;51.022;7.082;2023-03-01T04:08:25;16.70;;;9.40;;
48327;SDS011;34136;51.022;7.082;2023-03-01T04:11:11;15.60;;;9.70;;
48327;SDS011;34136;51.022;7.082;2023-03-01T04:13:58;15.97;;;10.73;;
48327;SDS011;34136;51.022;7.082;2023-03-01T04:16:44;16.33;;;9.67;;
48327;SDS011;34136;51.022;7.082;2023-03-01T04:19:31;14.77;;;9.40;;
48327;SDS011;34136;51.022;7.082;2023-03-01T04:22:17;16.83;;;10.17;;
48327;SDS011;34136;51.022;7.082;2023-03-01T04:25:03;15.47;;;10.20;;
48327;SDS011;34136;51.022;7.082;2023-03-01T04:27:50;16.27;;;10.53;;
48327;SDS011;34136;51.022;7.082;2023-03-01T04:30:37;13.90;;;9.87;;
48327;SDS011;34136;51.022;7.082;2023-03-01T04:33:25;15.77;;;10.27;;
48327;SDS011;34136;51.022;7.082;2023-03-01T04:36:12;16.57;;;9.60;;
48327;SDS011;34136;51.022;7.082;2023-03-01T04:38:59;14.90;;;9.53;;
48327;SDS011;34136;51.022;7.082;2023-03-01T04:41:46;15.63;;;9.80;;
48327;SDS011;34136;51.022;7.082;2023-03-01T04:44:32;15.70;;;10.20;;
48327;SDS011;34136;51.022;7.082;2023-03-01T04:47:18;14.17;;;9.27;;
48327;SDS011;34136;51.022;7.082;2023-03-01T04:50:05;15.17;;;10.27;;
48327;SDS011;34136;51.022;7.082;2023-03-01T04:52:52;14.30;;;9.90;;
48327;SDS011;34136;51.022;7.082;2023-03-01T04:55:38;16.87;;;9.90;;
48327;SDS011;34136;51.022;7.082;2023-03-01T04:58:25;16.50;;;10.40;;
48327;SDS011;34136;51.022;7.082;2023-03-01T05:01:17;16.87;;;10.37;;
48327;SDS011;34136;51.022;7.082;2023-03-01T05:04:05;17.07;;;11.43;;
48327;SDS011;34136;51.022;7.082;2023-03-01T05:06:51;15.33;;;10.03;;
48327;SDS011;34136;51.022;7.082;2023-03-01T05:09:37;16.43;;;11.10;;
48327;SDS011;34136;51.022;7.082;2023-03-01T05:12:23;17.87;;;11.23;;
48327;SDS011;34136;51.022;7.082;2023-03-01T05:15:09;16.97;;;10.77;;
48327;SDS011;34136;51.022;7.082;2023-03-01T05:17:57;16.63;;;10.30;;
48327;SDS011;34136;51.022;7.082;2023-03-01T05:20:44;13.67;;;10.37;;
48327;SDS011;34136;51.022;7.082;2023-03-01T05:23:31;15.17;;;10.40;;
48327;SDS011;34136;51.022;7.082;2023-03-01T05:26:20;15.53;;;10.43;;
48327;SDS011;34136;51.022;7.082;2023-03-01T05:29:06;14.00;;;9.93;;
48327;SDS011;34136;51.022;7.082;2023-03-01T05:31:54;12.47;;;9.60;;
48327;SDS011;34136;51.022;7.082;2023-03-01T05:34:41;14.90;;;9.90;;
48327;SDS011;34136;51.022;7.082;2023-03-01T05:37:28;15.07;;;10.37;;
48327;SDS011;34136;51.022;7.082;2023-03-01T05:40:33;16.60;;;10.57;;
48327;SDS011;34136;51.022;7.082;2023-03-01T05:43:20;14.90;;;10.03;;
48327;SDS011;34136;51.022;7.082;2023-03-01T05:46:06;16.23;;;10.77;;
48327;SDS011;34136;51.022;7.082;2023-03-01T05:49:11;15.67;;;10.30;;
48327;SDS011;34136;51.022;7.082;2023-03-01T05:51:58;15.97;;;11.10;;
48327;SDS011;34136;51.022;7.082;2023-03-01T05:54:44;18.00;;;11.70;;
48327;SDS011;34136;51.022;7.082;2023-03-01T05:57:31;15.07;;;10.73;;
48327;SDS011;34136;51.022;7.082;2023-03-01T06:00:18;16.73;;;11.47;;
48327;SDS011;34136;51.022;7.082;2023-03-01T06:06:48;14.53;;;10.30;;
48327;SDS011;34136;51.022;7.082;2023-03-01T06:09:35;14.27;;;11.07;;
48327;SDS011;34136;51.022;7.082;2023-03-01T06:12:21;15.60;;;11.20;;
48327;SDS011;34136;51.022;7.082;2023-03-01T06:15:08;17.43;;;11.37;;
48327;SDS011;34136;51.022;7.082;2023-03-01T06:17:56;17.77;;;10.93;;
48327;SDS011;34136;51.022;7.082;2023-03-01T06:20:42;16.43;;;11.20;;
48327;SDS011;34136;51.022;7.082;2023-03-01T06:23:28;18.23;;;11.73;;
48327;SDS011;34136;51.022;7.082;2023-03-01T06:26:14;19.17;;;11.80;;
48327;SDS011;34136;51.022;7.082;2023-03-01T06:29:00;14.33;;;10.60;;
48327;SDS011;34136;51.022;7.082;2023-03-01T06:31:47;14.93;;;10.90;;
48327;SDS011;34136;51.022;7.082;2023-03-01T06:34:33;16.23;;;10.97;;
48327;SDS011;34136;51.022;7.082;2023-03-01T06:37:19;19.00;;;10.93;;
48327;SDS011;34136;51.022;7.082;2023-03-01T06:40:06;18.67;;;10.27;;
48327;SDS011;34136;51.022;7.082;2023-03-01T06:42:53;19.63;;;11.33;;
48327;SDS011;34136;51.022;7.082;2023-03-01T06:45:39;16.10;;;11.40;;
48327;SDS011;34136;51.022;7.082;2023-03-01T06:48:25;14.97;;;10.90;;
48327;SDS011;34136;51.022;7.082;2023-03-01T06:51:12;13.93;;;11.13;;
48327;SDS011;34136;51.022;7.082;2023-03-01T06:53:58;18.23;;;11.40;;
48327;SDS011;34136;51.022;7.082;2023-03-01T06:56:46;19.27;;;12.07;;
48327;SDS011;34136;51.022;7.082;2023-03-01T06:59:32;16.60;;;11.63;;
48327;SDS011;34136;51.022;7.082;2023-03-01T07:02:18;17.23;;;11.07;;
48327;SDS011;34136;51.022;7.082;2023-03-01T07:05:04;19.33;;;11.90;;
48327;SDS011;34136;51.022;7.082;2023-03-01T07:07:51;18.40;;;11.27;;
48327;SDS011;34136;51.022;7.082;2023-03-01T07:10:39;15.07;;;10.30;;
48327;SDS011;34136;51.022;7.082;2023-03-01T07:13:25;19.33;;;11.87;;
48327;SDS011;34136;51.022;7.082;2023-03-01T07:16:11;20.33;;;11.67;;
48327;SDS011;34136;51.022;7.082;2023-03-01T07:18:57;21.53;;;12.23;;
48327;SDS011;34136;51.022;7.082;2023-03-01T07:21:43;17.37;;;11.17;;
48327;SDS011;34136;51.022;7.082;2023-03-01T07:24:30;16.17;;;11.10;;
48327;SDS011;34136;51.022;7.082;2023-03-01T07:27:16;15.77;;;11.67;;
48327;SDS011;34136;51.022;7.082;2023-03-01T07:30:02;16.40;;;11.87;;
48327;SDS011;34136;51.022;7.082;2023-03-01T07:32:49;21.47;;;11.93;;
48327;SDS011;34136;51.022;7.082;2023-03-01T07:35:35;19.60;;;11.87;;
48327;SDS011;34136;51.022;7.082;2023-03-01T07:38:21;16.47;;;11.20;;
48327;SDS011;34136;51.022;7.082;2023-03-01T07:41:07;17.77;;;11.77;;
48327;SDS011;34136;51.022;7.082;2023-03-01T07:43:54;15.67;;;11.00;;
48327;SDS011;34136;51.022;7.082;2023-03-01T07:46:40;17.33;;;11.17;;
48327;SDS011;34136;51.022;7.082;2023-03-01T07:49:26;15.80;;;11.27;;
48327;SDS011;34136;51.022;7.082;2023-03-01T07:52:12;18.10;;;11.90;;
48327;SDS011;34136;51.022;7.082;2023-03-01T07:54:58;17.50;;;10.87;;
48327;SDS011;34136;51.022;7.082;2023-03-01T07:57:44;16.07;;;11.07;;
48327;SDS011;34136;51.022;7.082;2023-03-01T08:00:30;16.93;;;11.47;;
48327;SDS011;34136;51.022;7.082;2023-03-01T08:03:16;18.33;;;11.63;;
48327;SDS011;34136;51.022;7.082;2023-03-01T08:06:02;16.77;;;11.83;;
48327;SDS011;34136;51.022;7.082;2023-03-01T08:08:50;17.50;;;12.10;;
48327;SDS011;34136;51.022;7.082;2023-03-01T08:11:36;15.30;;;11.60;;
48327;SDS011;34136;51.022;7.082;2023-03-01T08:14:22;17.57;;;11.17;;
48327;SDS011;34136;51.022;7.082;2023-03-01T08:17:08;15.67;;;10.80;;
48327;SDS011;34136;51.022;7.082;2023-03-01T08:19:55;19.90;;;11.90;;
48327;SDS011;34136;51.022;7.082;2023-03-01T08:22:41;15.23;;;10.63;;
48327;SDS011;34136;51.022;7.082;2023-03-01T08:25:27;17.57;;;10.83;;
48327;SDS011;34136;51.022;7.082;2023-03-01T08:28:13;14.43;;;10.20;;
48327;SDS011;34136;51.022;7.082;2023-03-01T08:30:59;17.13;;;9.83;;
48327;SDS011;34136;51.022;7.082;2023-03-01T08:33:46;14.17;;;10.57;;
48327;SDS011;34136;51.022;7.082;2023-03-01T08:36:38;16.20;;;10.17;;
48327;SDS011;34136;51.022;7.082;2023-03-01T08:42:12;13.87;;;10.13;;
48327;SDS011;34136;51.022;7.082;2023-03-01T08:44:58;14.70;;;10.57;;
48327;SDS011;34136;51.022;7.082;2023-03-01T08:47:44;16.23;;;9.97;;
48327;SDS011;34136;51.022;7.082;2023-03-01T08:50:30;16.07;;;10.07;;
48327;SDS011;34136;51.022;7.082;2023-03-01T08:53:16;16.80;;;10.47;;
48327;SDS011;34136;51.022;7.082;2023-03-01T08:56:02;14.57;;;9.33;;
48327;SDS011;34136;51.022;7.082;2023-03-01T08:58:50;17.07;;;9.47;;
48327;SDS011;34136;51.022;7.082;2023-03-01T09:01:36;13.27;;;9.67;;
48327;SDS011;34136;51.022;7.082;2023-03-01T09:04:22;15.50;;;9.43;;
48327;SDS011;34136;51.022;7.082;2023-03-01T09:07:08;14.83;;;9.80;;
48327;SDS011;34136;51.022;7.082;2023-03-01T09:09:55;13.80;;;9.87;;
48327;SDS011;34136;51.022;7.082;2023-03-01T09:12:41;13.40;;;9.43;;
48327;SDS011;34136;51.022;7.082;2023-03-01T09:15:27;13.43;;;9.13;;
48327;SDS011;34136;51.022;7.082;2023-03-01T09:18:14;15.53;;;9.80;;
48327;SDS011;34136;51.022;7.082;2023-03-01T09:21:01;16.67;;;9.90;;
48327;SDS011;34136;51.022;7.082;2023-03-01T09:23:51;15.77;;;9.73;;
48327;SDS011;34136;51.022;7.082;2023-03-01T09:26:37;15.45;;;9.60;;
48327;SDS011;34136;51.022;7.082;2023-03-01T09:29:24;13.43;;;9.37;;
48327;SDS011;34136;51.022;7.082;2023-03-01T09:32:10;17.30;;;9.93;;
48327;SDS011;34136;51.022;7.082;2023-03-01T09:34:56;15.10;;;9.97;;
48327;SDS011;34136;51.022;7.082;2023-03-01T09:37:42;14.23;;;9.80;;
48327;SDS011;34136;51.022;7.082;2023-03-01T09:40:29;13.23;;;9.10;;
48327;SDS011;34136;51.022;7.082;2023-03-01T09:43:18;13.88;;;10.15;;
48327;SDS011;34136;51.022;7.082;2023-03-01T09:46:12;14.25;;;9.50;;
48327;SDS011;34136;51.022;7.082;2023-03-01T09:58:16;14.80;;;9.07;;
48327;SDS011;34136;51.022;7.082;2023-03-01T10:07:29;13.20;;;9.43;;
48327;SDS011;34136;51.022;7.082;2023-03-01T10:10:33;14.73;;;9.70;;
48327;SDS011;34136;51.022;7.082;2023-03-01T10:16:34;14.05;;;8.82;;
48327;SDS011;34136;51.022;7.082;2023-03-01T10:19:36;11.02;;;8.40;;
48327;SDS011;34136;51.022;7.082;2023-03-01T10:22:27;13.10;;;9.02;;
48327;SDS011;34136;51.022;7.082;2023-03-01T10:25:14;13.27;;;8.20;;
48327;SDS011;34136;51.022;7.082;2023-03-01T10:28:05;12.57;;;8.30;;
48327;SDS011;34136;51.022;7.082;2023-03-01T10:31:02;12.77;;;9.38;;
48327;SDS011;34136;51.022;7.082;2023-03-01T10:33:48;11.93;;;9.10;;
48327;SDS011;34136;51.022;7.082;2023-03-01T10:36:34;13.50;;;8.43;;
48327;SDS011;34136;51.022;7.082;2023-03-01T10:39:25;11.15;;;8.75;;
48327;SDS011;34136;51.022;7.082;2023-03-01T10:42:28;12.77;;;8.93;;
48327;SDS011;34136;51.022;7.082;2023-03-01T10:48:25;13.48;;;9.02;;
48327;SDS011;34136;51.022;7.082;2023-03-01T10:51:16;12.73;;;9.48;;
48327;SDS011;34136;51.022;7.082;2023-03-01T10:54:04;11.75;;;9.02;;
48327;SDS011;34136;51.022;7.082;2023-03-01T10:56:55;10.10;;;8.25;;
48327;SDS011;34136;51.022;7.082;2023-03-01T10:59:46;10.57;;;8.65;;
48327;SDS011;34136;51.022;7.082;2023-03-01T11:06:27;12.77;;;9.52;;
48327;SDS011;34136;51.022;7.082;2023-03-01T11:08:57;10.93;;;8.52;;
48327;SDS011;34136;51.022;7.082;2023-03-01T11:12:17;13.23;;;9.07;;
48327;SDS011;34136;51.022;7.082;2023-03-01T11:15:03;13.93;;;7.95;;
48327;SDS011;34136;51.022;7.082;2023-03-01T11:17:50;11.63;;;8.65;;
48327;SDS011;34136;51.022;7.082;2023-03-01T11:20:37;11.70;;;7.78;;
48327;SDS011;34136;51.022;7.082;2023-03-01T11:23:23;11.90;;;8.35;;
48327;SDS011;34136;51.022;7.082;2023-03-01T11:26:12;10.35;;;8.38;;
48327;SDS011;34136;51.022;7.082;2023-03-01T11:29:05;11.70;;;8.50;;
48327;SDS011;34136;51.022;7.082;2023-03-01T11:32:01;11.60;;;8.40;;
48327;SDS011;34136;51.022;7.082;2023-03-01T11:35:05;13.45;;;8.48;;
48327;SDS011;34136;51.022;7.082;2023-03-01T11:38:23;12.77;;;9.63;;
48327;SDS011;34136;51.022;7.082;2023-03-01T11:41:15;13.25;;;8.45;;
48327;SDS011;34136;51.022;7.082;2023-03-01T11:44:28;13.43;;;9.27;;
48327;SDS011;34136;51.022;7.082;2023-03-01T11:50:54;11.95;;;8.40;;
48327;SDS011;34136;51.022;7.082;2023-03-01T11:56:24;11.60;;;8.80;;
48327;SDS011;34136;51.022;7.082;2023-03-01T12:02:45;14.32;;;9.02;;
48327;SDS011;34136;51.022;7.082;2023-03-01T12:14:43;11.32;;;8.02;;
48327;SDS011;34136;51.022;7.082;2023-03-01T12:17:48;11.55;;;7.82;;
48327;SDS011;34136;51.022;7.082;2023-03-01T12:21:06;10.68;;;7.18;;
48327;SDS011;34136;51.022;7.082;2023-03-01T12:24:06;11.27;;;7.78;;
48327;SDS011;34136;51.022;7.082;2023-03-01T12:36:27;11.85;;;8.10;;
48327;SDS011;34136;51.022;7.082;2023-03-01T12:45:44;12.05;;;7.60;;
48327;SDS011;34136;51.022;7.082;2023-03-01T12:49:02;13.98;;;8.07;;
48327;SDS011;34136;51.022;7.082;2023-03-01T12:52:02;11.30;;;8.20;;
48327;SDS011;34136;51.022;7.082;2023-03-01T12:54:57;10.05;;;7.38;;
48327;SDS011;34136;51.022;7.082;2023-03-01T12:57:57;12.98;;;8.32;;
48327;SDS011;34136;51.022;7.082;2023-03-01T13:13:11;11.63;;;7.80;;
48327;SDS011;34136;51.022;7.082;2023-03-01T13:15:58;11.60;;;7.53;;
48327;SDS011;34136;51.022;7.082;2023-03-01T13:19:06;12.02;;;7.38;;
48327;SDS011;34136;51.022;7.082;2023-03-01T13:21:58;10.73;;;7.60;;
48327;SDS011;34136;51.022;7.082;2023-03-01T13:24:45;9.95;;;7.38;;
48327;SDS011;34136;51.022;7.082;2023-03-01T13:27:31;10.15;;;7.40;;
48327;SDS011;34136;51.022;7.082;2023-03-01T13:39:33;8.52;;;6.80;;
48327;SDS011;34136;51.022;7.082;2023-03-01T13:42:39;8.82;;;6.68;;
48327;SDS011;34136;51.022;7.082;2023-03-01T13:48:27;8.65;;;6.70;;
48327;SDS011;34136;51.022;7.082;2023-03-01T13:51:15;8.52;;;6.30;;
48327;SDS011;34136;51.022;7.082;2023-03-01T13:54:09;8.95;;;6.63;;
48327;SDS011;34136;51.022;7.082;2023-03-01T13:59:47;8.38;;;6.55;;
48327;SDS011;34136;51.022;7.082;2023-03-01T14:02:34;10.57;;;6.50;;
48327;SDS011;34136;51.022;7.082;2023-03-01T14:05:20;9.77;;;6.60;;
48327;SDS011;34136;51.022;7.082;2023-03-01T14:08:23;10.20;;;7.50;;
48327;SDS011;34136;51.022;7.082;2023-03-01T14:17:21;12.43;;;7.85;;
48327;SDS011;34136;51.022;7.082;2023-03-01T14:20:14;9.15;;;6.95;;
48327;SDS011;34136;51.022;7.082;2023-03-01T14:23:07;10.15;;;7.30;;
48327;SDS011;34136;51.022;7.082;2023-03-01T14:25:57;11.98;;;6.80;;
48327;SDS011;34136;51.022;7.082;2023-03-01T14:28:44;11.55;;;7.40;;
48327;SDS011;34136;51.022;7.082;2023-03-01T14:31:31;9.45;;;7.38;;
48327;SDS011;34136;51.022;7.082;2023-03-01T14:34:22;10.00;;;7.40;;
48327;SDS011;34136;51.022;7.082;2023-03-01T14:37:19;11.88;;;7.35;;
48327;SDS011;34136;51.022;7.082;2023-03-01T14:40:20;11.63;;;7.82;;
48327;SDS011;34136;51.022;7.082;2023-03-01T14:43:09;12.00;;;8.00;;
48327;SDS011;34136;51.022;7.082;2023-03-01T14:45:57;10.25;;;6.82;;
48327;SDS011;34136;51.022;7.082;2023-03-01T14:48:43;9.57;;;6.93;;
48327;SDS011;34136;51.022;7.082;2023-03-01T14:51:29;11.05;;;7.43;;
48327;SDS011;34136;51.022;7.082;2023-03-01T14:54:21;9.73;;;6.78;;
48327;SDS011;34136;51.022;7.082;2023-03-01T14:57:13;9.50;;;7.40;;
48327;SDS011;34136;51.022;7.082;2023-03-01T15:00:03;10.98;;;7.63;;
48327;SDS011;34136;51.022;7.082;2023-03-01T15:02:52;13.35;;;7.93;;
48327;SDS011;34136;51.022;7.082;2023-03-01T15:05:40;9.43;;;7.22;;
48327;SDS011;34136;51.022;7.082;2023-03-01T15:08:28;10.77;;;7.30;;
48327;SDS011;34136;51.022;7.082;2023-03-01T15:14:24;10.57;;;6.90;;
48327;SDS011;34136;51.022;7.082;2023-03-01T15:17:20;9.13;;;7.38;;
48327;SDS011;34136;51.022;7.082;2023-03-01T15:20:17;12.27;;;7.30;;
48327;SDS011;34136;51.022;7.082;2023-03-01T15:23:30;9.57;;;6.88;;
48327;SDS011;34136;51.022;7.082;2023-03-01T15:29:25;9.15;;;6.93;;
48327;SDS011;34136;51.022;7.082;2023-03-01T15:41:46;10.10;;;6.82;;
48327;SDS011;34136;51.022;7.082;2023-03-01T15:44:38;10.27;;;7.38;;
48327;SDS011;34136;51.022;7.082;2023-03-01T15:47:27;10.27;;;6.68;;
48327;SDS011;34136;51.022;7.082;2023-03-01T15:50:19;8.77;;;6.70;;
48327;SDS011;34136;51.022;7.082;2023-03-01T15:53:16;8.30;;;5.97;;
48327;SDS011;34136;51.022;7.082;2023-03-01T15:56:02;11.07;;;7.15;;
48327;SDS011;34136;51.022;7.082;2023-03-01T15:58:49;12.48;;;6.80;;
48327;SDS011;34136;51.022;7.082;2023-03-01T16:01:35;11.77;;;6.45;;
48327;SDS011;34136;51.022;7.082;2023-03-01T16:04:21;11.07;;;7.20;;
48327;SDS011;34136;51.022;7.082;2023-03-01T16:07:08;10.52;;;6.65;;
48327;SDS011;34136;51.022;7.082;2023-03-01T16:09:54;8.70;;;6.13;;
48327;SDS011;34136;51.022;7.082;2023-03-01T16:12:40;10.70;;;6.53;;
48327;SDS011;34136;51.022;7.082;2023-03-01T16:15:28;11.82;;;6.32;;
48327;SDS011;34136;51.022;7.082;2023-03-01T16:18:15;9.82;;;6.70;;
48327;SDS011;34136;51.022;7.082;2023-03-01T16:21:01;8.00;;;6.32;;
48327;SDS011;34136;51.022;7.082;2023-03-01T16:23:47;9.82;;;6.57;;
48327;SDS011;34136;51.022;7.082;2023-03-01T16:26:35;9.88;;;6.53;;
48327;SDS011;34136;51.022;7.082;2023-03-01T16:29:22;8.82;;;6.65;;
48327;SDS011;34136;51.022;7.082;2023-03-01T16:32:08;10.52;;;6.18;;
48327;SDS011;34136;51.022;7.082;2023-03-01T16:34:55;9.75;;;5.97;;
48327;SDS011;34136;51.022;7.082;2023-03-01T16:37:41;12.38;;;6.32;;
48327;SDS011;34136;51.022;7.082;2023-03-01T16:40:28;8.32;;;6.10;;
48327;SDS011;34136;51.022;7.082;2023-03-01T16:43:14;12.00;;;6.15;;
48327;SDS011;34136;51.022;7.082;2023-03-01T16:46:00;9.73;;;5.97;;
48327;SDS011;34136;51.022;7.082;2023-03-01T16:48:47;11.43;;;6.32;;
48327;SDS011;34136;51.022;7.082;2023-03-01T16:51:34;8.23;;;5.88;;
48327;SDS011;34136;51.022;7.082;2023-03-01T16:54:21;11.95;;;6.10;;
48327;SDS011;34136;51.022;7.082;2023-03-01T16:57:07;9.10;;;6.38;;
48327;SDS011;34136;51.022;7.082;2023-03-01T16:59:53;11.25;;;6.05;;
48327;SDS011;34136;51.022;7.082;2023-03-01T17:02:39;10.70;;;6.55;;
48327;SDS011;34136;51.022;7.082;2023-03-01T17:05:26;11.75;;;6.13;;
48327;SDS011;34136;51.022;7.082;2023-03-01T17:08:13;9.25;;;6.25;;
48327;SDS011;34136;51.022;7.082;2023-03-01T17:13:55;12.20;;;6.50;;
48327;SDS011;34136;51.022;7.082;2023-03-01T17:16:42;12.90;;;6.40;;
48327;SDS011;34136;51.022;7.082;2023-03-01T17:19:29;9.93;;;6.22;;
48327;SDS011;34136;51.022;7.082;2023-03-01T17:22:15;10.82;;;7.28;;
48327;SDS011;34136;51.022;7.082;2023-03-01T17:25:02;8.38;;;6.72;;
48327;SDS011;34136;51.022;7.082;2023-03-01T17:27:48;9.68;;;6.18;;
48327;SDS011;34136;51.022;7.082;2023-03-01T17:30:34;7.93;;;6.05;;
48327;SDS011;34136;51.022;7.082;2023-03-01T17:33:23;10.05;;;6.15;;
48327;SDS011;34136;51.022;7.082;2023-03-01T17:36:11;10.05;;;6.13;;
48327;SDS011;34136;51.022;7.082;2023-03-01T17:38:58;11.10;;;7.18;;
48327;SDS011;34136;51.022;7.082;2023-03-01T17:41:44;9.48;;;6.60;;
48327;SDS011;34136;51.022;7.082;2023-03-01T17:44:33;9.00;;;6.70;;
48327;SDS011;34136;51.022;7.082;2023-03-01T17:47:20;9.18;;;6.90;;
48327;SDS011;34136;51.022;7.082;2023-03-01T17:50:08;12.68;;;9.73;;
48327;SDS011;34136;51.022;7.082;2023-03-01T17:52:55;11.07;;;7.82;;
48327;SDS011;34136;51.022;7.082;2023-03-01T17:55:42;10.63;;;6.97;;
48327;SDS011;34136;51.022;7.082;2023-03-01T17:58:29;10.50;;;8.55;;
48327;SDS011;34136;51.022;7.082;2023-03-01T18:01:17;11.75;;;9.43;;
48327;SDS011;34136;51.022;7.082;2023-03-01T18:04:04;11.70;;;8.30;;
48327;SDS011;34136;51.022;7.082;2023-03-01T18:06:50;12.43;;;7.55;;
48327;SDS011;34136;51.022;7.082;2023-03-01T18:09:36;9.52;;;7.32;;
48327;SDS011;34136;51.022;7.082;2023-03-01T18:12:23;11.35;;;7.63;;
48327;SDS011;34136;51.022;7.082;2023-03-01T18:15:09;10.35;;;6.57;;
48327;SDS011;34136;51.022;7.082;2023-03-01T18:17:55;10.38;;;6.60;;
48327;SDS011;34136;51.022;7.082;2023-03-01T18:20:41;10.38;;;6.93;;
48327;SDS011;34136;51.022;7.082;2023-03-01T18:23:27;22.23;;;10.95;;
48327;SDS011;34136;51.022;7.082;2023-03-01T18:26:14;13.45;;;7.95;;
48327;SDS011;34136;51.022;7.082;2023-03-01T18:29:02;13.80;;;9.25;;
48327;SDS011;34136;51.022;7.082;2023-03-01T18:31:48;13.30;;;8.70;;
48327;SDS011;34136;51.022;7.082;2023-03-01T18:34:34;15.60;;;9.35;;
48327;SDS011;34136;51.022;7.082;2023-03-01T18:37:20;11.35;;;7.75;;
48327;SDS011;34136;51.022;7.082;2023-03-01T18:40:07;13.32;;;7.75;;
48327;SDS011;34136;51.022;7.082;2023-03-01T18:42:54;11.68;;;8.50;;
48327;SDS011;34136;51.022;7.082;2023-03-01T18:45:40;13.82;;;8.75;;
48327;SDS011;34136;51.022;7.082;2023-03-01T18:48:26;15.50;;;8.93;;
48327;SDS011;34136;51.022;7.082;2023-03-01T18:51:13;16.27;;;8.15;;
48327;SDS011;34136;51.022;7.082;2023-03-01T18:54:02;11.77;;;8.00;;
48327;SDS011;34136;51.022;7.082;2023-03-01T18:56:48;10.85;;;8.30;;
48327;SDS011;34136;51.022;7.082;2023-03-01T18:59:34;10.88;;;7.20;;
48327;SDS011;34136;51.022;7.082;2023-03-01T19:02:21;11.50;;;7.50;;
48327;SDS011;34136;51.022;7.082;2023-03-01T19:05:07;9.10;;;6.32;;
48327;SDS011;34136;51.022;7.082;2023-03-01T19:07:53;10.30;;;6.72;;
48327;SDS011;34136;51.022;7.082;2023-03-01T19:10:40;10.00;;;6.75;;
48327;SDS011;34136;51.022;7.082;2023-03-01T19:13:26;10.10;;;6.68;;
48327;SDS011;34136;51.022;7.082;2023-03-01T19:16:15;12.18;;;7.20;;
48327;SDS011;34136;51.022;7.082;2023-03-01T19:19:04;8.98;;;6.90;;
48327;SDS011;34136;51.022;7.082;2023-03-01T19:21:50;10.07;;;7.07;;
48327;SDS011;34136;51.022;7.082;2023-03-01T19:24:36;10.18;;;6.63;;
48327;SDS011;34136;51.022;7.082;2023-03-01T19:27:23;11.52;;;6.70;;
48327;SDS011;34136;51.022;7.082;2023-03-01T19:30:09;9.75;;;6.90;;
48327;SDS011;34136;51.022;7.082;2023-03-01T19:32:56;12.55;;;7.90;;
48327;SDS011;34136;51.022;7.082;2023-03-01T19:35:45;12.75;;;7.03;;
48327;SDS011;34136;51.022;7.082;2023-03-01T19:38:35;11.75;;;7.22;;
48327;SDS011;34136;51.022;7.082;2023-03-01T19:41:21;10.63;;;7.57;;
48327;SDS011;34136;51.022;7.082;2023-03-01T19:44:08;8.90;;;6.65;;
48327;SDS011;34136;51.022;7.082;2023-03-01T19:46:55;9.75;;;6.72;;
48327;SDS011;34136;51.022;7.082;2023-03-01T19:49:42;12.38;;;7.60;;
48327;SDS011;34136;51.022;7.082;2023-03-01T19:55:17;10.95;;;7.32;;
48327;SDS011;34136;51.022;7.082;2023-03-01T19:58:06;10.52;;;7.40;;
48327;SDS011;34136;51.022;7.082;2023-03-01T20:00:53;10.67;;;7.50;;
48327;SDS011;34136;51.022;7.082;2023-03-01T20:03:40;14.13;;;7.72;;
48327;SDS011;34136;51.022;7.082;2023-03-01T20:17:36;11.23;;;7.03;;
48327;SDS011;34136;51.022;7.082;2023-03-01T20:21:02;10.85;;;7.28;;
48327;SDS011;34136;51.022;7.082;2023-03-01T20:25:09;12.50;;;7.93;;
48327;SDS011;34136;51.022;7.082;2023-03-01T20:36:26;12.33;;;7.53;;
48327;SDS011;34136;51.022;7.082;2023-03-01T20:40:14;14.37;;;8.63;;
48327;SDS011;34136;51.022;7.082;2023-03-01T21:03:16;20.87;;;10.10;;
48327;SDS011;34136;51.022;7.082;2023-03-01T21:10:49;19.97;;;11.53;;
48327;SDS011;34136;51.022;7.082;2023-03-01T21:22:56;15.07;;;9.50;;
48327;SDS011;34136;51.022;7.082;2023-03-01T21:54:15;14.23;;;8.20;;
48327;SDS011;34136;51.022;7.082;2023-03-01T21:57:59;11.43;;;8.25;;